Fountain Hills, Arizona
Current Conditions -  °F | °C
As of 10:53 PM on Friday 19 Dec 2014 (Local Time) from KSDL Reporting Station
Clear Clear  
Wind Chill: 48°   Ceiling: Unl
Heat Index: 48°   Visibility: 10mi
Dew Point: 40°   Wind: 0mph
Humidity: 74%   Direction: NA
Pressure: 30.14"   Gusts: NA
Location:  33.61°N, 111.71°W
Report Text: KSDL 200553Z 00000KT 10SM CLR 09/04 A3014 RMK AO2 SLP200 T00890044 10161 20089 55006
Loading
Personal Weather Stations






























Interactive Weather Map New forecast layout! Learn more

10-Day Weather Forecast

Advertisements
Track Severe Weather on mobile